Time;durP1;ratioP1;P1;durP2;ratioP2;P2;SDS_P1;SDS_P2;PMS_P1;PMS_P2;Temp;Humidity;BMP_temperature;BMP_pressure;BME280_temperature;BME280_humidity;BME280_pressure;Samples;Min_cycle;Max_cycle;Signal;HPM_P1;HPM_P2
2023/08/18 00:01:31;;;;;;;12.98;5.70;;;;;;;;;;6129332;23;20013;-43
2023/08/18 00:04:00;;;;;;;13.73;5.70;;;;;;;;;;6126827;23;20044;-42
2023/08/18 00:06:29;;;;;;;13.77;5.85;;;;;;;;;;6119846;23;20388;-42
2023/08/18 00:08:57;;;;;;;12.53;5.87;;;;;;;;;;6127487;23;20040;-42
2023/08/18 00:11:25;;;;;;;12.63;5.55;;;;;;;;;;6121591;23;20121;-43
2023/08/18 00:13:52;;;;;;;13.68;5.65;;;;;;;;;;6129711;23;20017;-42
2023/08/18 00:16:20;;;;;;;15.20;5.72;;;;;;;;;;6120581;23;20021;-44
2023/08/18 00:18:47;;;;;;;13.15;5.68;;;;;;;;;;6124418;23;20041;-42
2023/08/18 00:21:17;;;;;;;14.17;5.27;;;;;;;;;;6121949;23;20017;-43
2023/08/18 00:23:45;;;;;;;14.18;5.32;;;;;;;;;;6123062;23;20352;-42
2023/08/18 00:26:13;;;;;;;10.80;5.22;;;;;;;;;;6125647;23;20092;-42
2023/08/18 00:28:41;;;;;;;11.13;5.50;;;;;;;;;;6148892;23;20013;-42
2023/08/18 00:31:08;;;;;;;11.52;5.18;;;;;;;;;;6122246;23;20297;-44
2023/08/18 00:33:36;;;;;;;13.03;4.97;;;;;;;;;;6122374;23;20018;-42
2023/08/18 00:36:04;;;;;;;17.85;6.30;;;;;;;;;;6125632;23;20013;-42
2023/08/18 00:38:36;;;;;;;13.80;5.68;;;;;;;;;;6124457;23;20228;-42
2023/08/18 00:41:07;;;;;;;16.75;6.38;;;;;;;;;;6119653;23;20559;-45
2023/08/18 00:43:35;;;;;;;12.85;5.57;;;;;;;;;;6130747;23;20029;-44
2023/08/18 00:46:03;;;;;;;19.67;6.30;;;;;;;;;;6119495;23;20076;-43
2023/08/18 00:48:30;;;;;;;12.07;6.00;;;;;;;;;;6126754;23;20461;-43
2023/08/18 00:50:59;;;;;;;17.85;6.65;;;;;;;;;;6125749;23;20210;-42
2023/08/18 00:53:27;;;;;;;17.38;6.22;;;;;;;;;;6131486;23;20445;-42
2023/08/18 00:55:56;;;;;;;17.10;6.90;;;;;;;;;;6116897;23;20068;-43
2023/08/18 00:58:24;;;;;;;21.47;6.50;;;;;;;;;;6132702;23;20022;-42
2023/08/18 01:00:51;;;;;;;15.63;6.72;;;;;;;;;;6115337;23;20573;-42
2023/08/18 01:03:19;;;;;;;14.00;6.95;;;;;;;;;;6126811;23;20081;-43
2023/08/18 01:05:47;;;;;;;15.38;6.38;;;;;;;;;;6132289;23;20496;-43
2023/08/18 01:08:15;;;;;;;17.38;8.07;;;;;;;;;;6111374;23;20018;-42
2023/08/18 01:10:46;;;;;;;17.53;6.57;;;;;;;;;;6126589;23;20060;-44
2023/08/18 01:13:18;;;;;;;15.45;7.10;;;;;;;;;;6116434;23;20048;-42
2023/08/18 01:15:47;;;;;;;15.68;6.78;;;;;;;;;;6123998;23;20017;-43
2023/08/18 01:18:15;;;;;;;16.63;6.75;;;;;;;;;;6128378;23;20018;-45
2023/08/18 01:20:43;;;;;;;14.45;7.32;;;;;;;;;;6123491;23;20021;-42
2023/08/18 01:23:11;;;;;;;17.47;7.27;;;;;;;;;;6124971;23;20013;-44
2023/08/18 01:25:39;;;;;;;14.82;6.13;;;;;;;;;;6124853;23;20025;-44
2023/08/18 01:28:07;;;;;;;17.48;7.72;;;;;;;;;;6124069;23;20017;-42
2023/08/18 01:30:36;;;;;;;15.32;7.20;;;;;;;;;;6119755;23;20023;-43
2023/08/18 01:33:06;;;;;;;18.70;7.20;;;;;;;;;;6125614;23;20013;-43
2023/08/18 01:35:33;;;;;;;18.07;7.40;;;;;;;;;;6118918;23;20445;-45
2023/08/18 01:38:02;;;;;;;18.25;6.72;;;;;;;;;;6129582;23;20021;-43
2023/08/18 01:40:31;;;;;;;15.43;6.68;;;;;;;;;;6099961;23;20303;-42
2023/08/18 01:42:59;;;;;;;15.45;7.15;;;;;;;;;;6128083;23;20448;-46
2023/08/18 01:45:27;;;;;;;21.80;7.50;;;;;;;;;;6118510;23;20013;-42
2023/08/18 01:47:55;;;;;;;14.57;7.27;;;;;;;;;;6121511;23;20308;-46
2023/08/18 01:50:23;;;;;;;13.25;7.90;;;;;;;;;;6130560;23;20020;-45
2023/08/18 01:52:50;;;;;;;20.60;8.05;;;;;;;;;;6131780;23;20014;-44
2023/08/18 01:55:18;;;;;;;21.23;9.27;;;;;;;;;;6129890;23;20025;-42
2023/08/18 01:57:47;;;;;;;20.33;9.43;;;;;;;;;;6126457;23;20020;-43
2023/08/18 02:00:14;;;;;;;21.00;8.93;;;;;;;;;;6131525;23;20818;-42
2023/08/18 02:02:48;;;;;;;19.35;8.95;;;;;;;;;;6154640;23;20462;-44
2023/08/18 02:05:17;;;;;;;18.98;8.73;;;;;;;;;;6122992;23;20044;-42
2023/08/18 02:07:44;;;;;;;22.20;8.70;;;;;;;;;;6135963;23;20085;-43
2023/08/18 02:10:12;;;;;;;16.98;7.90;;;;;;;;;;6135333;23;20028;-44
2023/08/18 02:12:40;;;;;;;15.27;8.40;;;;;;;;;;6150005;23;20460;-42
2023/08/18 02:15:10;;;;;;;23.33;9.57;;;;;;;;;;6129606;23;20021;-44
2023/08/18 02:17:37;;;;;;;21.10;9.98;;;;;;;;;;6107631;23;20245;-45
2023/08/18 02:20:06;;;;;;;20.17;8.68;;;;;;;;;;6133740;23;20040;-44
2023/08/18 02:22:34;;;;;;;21.55;9.40;;;;;;;;;;6154371;23;20021;-42
2023/08/18 02:25:02;;;;;;;17.63;8.97;;;;;;;;;;6130482;23;20014;-42
2023/08/18 02:27:29;;;;;;;20.20;9.02;;;;;;;;;;6122338;23;20017;-43
2023/08/18 02:29:58;;;;;;;18.20;9.18;;;;;;;;;;6129928;23;20018;-44
2023/08/18 02:32:28;;;;;;;17.33;8.80;;;;;;;;;;6121717;23;20013;-42
2023/08/18 02:34:55;;;;;;;18.13;8.70;;;;;;;;;;6129736;23;20040;-44
2023/08/18 02:37:23;;;;;;;23.27;9.73;;;;;;;;;;6119110;23;20475;-46
2023/08/18 02:39:51;;;;;;;20.20;8.82;;;;;;;;;;6132958;23;20045;-44
2023/08/18 02:42:19;;;;;;;18.52;9.13;;;;;;;;;;6123753;23;20068;-42
2023/08/18 02:44:47;;;;;;;22.30;9.27;;;;;;;;;;6124156;23;20017;-42
2023/08/18 02:47:15;;;;;;;20.50;8.98;;;;;;;;;;6132229;23;20017;-42
2023/08/18 02:49:46;;;;;;;19.43;9.43;;;;;;;;;;6127486;23;20022;-44
2023/08/18 02:52:14;;;;;;;20.52;10.30;;;;;;;;;;6130066;23;20084;-42
2023/08/18 02:54:41;;;;;;;21.80;9.35;;;;;;;;;;6123675;23;20033;-42
2023/08/18 02:57:09;;;;;;;20.63;9.45;;;;;;;;;;6130426;23;20017;-42
2023/08/18 02:59:37;;;;;;;20.17;9.88;;;;;;;;;;6116252;23;20464;-42
2023/08/18 03:02:08;;;;;;;19.60;9.07;;;;;;;;;;6132173;23;20033;-41
2023/08/18 03:04:35;;;;;;;24.08;9.13;;;;;;;;;;6128551;23;20044;-42
2023/08/18 03:07:04;;;;;;;19.25;9.32;;;;;;;;;;6126945;23;20025;-45
2023/08/18 03:09:33;;;;;;;21.90;9.63;;;;;;;;;;6131721;23;20052;-42
2023/08/18 03:12:00;;;;;;;18.45;8.57;;;;;;;;;;6120396;23;20017;-42
2023/08/18 03:14:29;;;;;;;19.30;9.17;;;;;;;;;;6130887;23;20017;-41
2023/08/18 03:16:56;;;;;;;24.88;10.00;;;;;;;;;;6105319;23;20026;-41
2023/08/18 03:19:24;;;;;;;21.42;9.88;;;;;;;;;;6126497;23;20041;-44
2023/08/18 03:21:52;;;;;;;20.85;8.43;;;;;;;;;;6152096;23;20355;-41
2023/08/18 03:24:21;;;;;;;18.05;9.00;;;;;;;;;;6132997;23;20013;-43
2023/08/18 03:26:48;;;;;;;20.47;9.67;;;;;;;;;;6127223;23;20017;-45
2023/08/18 03:29:16;;;;;;;21.27;10.13;;;;;;;;;;6135061;23;20330;-42
2023/08/18 03:31:44;;;;;;;19.85;8.80;;;;;;;;;;6123312;23;20499;-44
2023/08/18 03:34:11;;;;;;;26.60;10.60;;;;;;;;;;6130219;23;20348;-42
2023/08/18 03:36:41;;;;;;;18.10;8.90;;;;;;;;;;6129960;23;20022;-42
2023/08/18 03:39:09;;;;;;;19.70;8.97;;;;;;;;;;6130630;23;20018;-45
2023/08/18 03:41:38;;;;;;;18.42;8.88;;;;;;;;;;6121289;23;20017;-43
2023/08/18 03:44:06;;;;;;;22.38;9.45;;;;;;;;;;6135177;23;20013;-42
2023/08/18 03:46:33;;;;;;;17.65;8.85;;;;;;;;;;6122073;23;20337;-42
2023/08/18 03:49:02;;;;;;;21.50;9.10;;;;;;;;;;6112735;23;20017;-42
2023/08/18 03:51:30;;;;;;;24.83;9.60;;;;;;;;;;6152387;23;20455;-43
2023/08/18 03:53:57;;;;;;;17.52;8.00;;;;;;;;;;6135593;23;20018;-43
2023/08/18 03:56:25;;;;;;;21.67;8.90;;;;;;;;;;6127269;23;20024;-43
2023/08/18 03:58:54;;;;;;;19.23;8.82;;;;;;;;;;6119546;23;20405;-41
2023/08/18 04:01:22;;;;;;;20.98;8.45;;;;;;;;;;6135462;23;20022;-43
2023/08/18 04:03:52;;;;;;;18.43;8.27;;;;;;;;;;6122659;23;20025;-42
2023/08/18 04:06:20;;;;;;;18.13;8.75;;;;;;;;;;6133153;23;20017;-42
2023/08/18 04:08:48;;;;;;;18.02;8.02;;;;;;;;;;6126113;23;20014;-42
2023/08/18 04:11:15;;;;;;;19.88;8.02;;;;;;;;;;6133824;23;20044;-43
2023/08/18 04:13:44;;;;;;;21.00;7.72;;;;;;;;;;6127267;23;20030;-47
2023/08/18 04:16:13;;;;;;;18.50;8.90;;;;;;;;;;6128191;23;20014;-44
2023/08/18 04:18:40;;;;;;;17.88;8.80;;;;;;;;;;6129064;23;20021;-41
2023/08/18 04:21:08;;;;;;;17.98;8.25;;;;;;;;;;6130431;23;20024;-44
2023/08/18 04:23:36;;;;;;;20.45;7.65;;;;;;;;;;6126674;23;20018;-42
2023/08/18 04:26:04;;;;;;;20.17;8.38;;;;;;;;;;6132323;23;20072;-42
2023/08/18 04:28:31;;;;;;;17.87;8.47;;;;;;;;;;6125759;23;20013;-42
2023/08/18 04:30:59;;;;;;;22.02;8.52;;;;;;;;;;6136303;23;20013;-44
2023/08/18 04:33:28;;;;;;;21.02;8.48;;;;;;;;;;6127818;23;20393;-41
2023/08/18 04:35:57;;;;;;;20.38;8.38;;;;;;;;;;6129333;23;20022;-42
2023/08/18 04:38:29;;;;;;;24.92;8.32;;;;;;;;;;6134128;23;20022;-42
2023/08/18 04:40:57;;;;;;;21.17;8.90;;;;;;;;;;6125925;23;20021;-42
2023/08/18 04:43:25;;;;;;;16.42;7.57;;;;;;;;;;6132865;23;20013;-43
2023/08/18 04:45:53;;;;;;;18.80;8.25;;;;;;;;;;6126921;23;20318;-41
2023/08/18 04:48:21;;;;;;;18.08;8.35;;;;;;;;;;6130531;23;20021;-41
2023/08/18 04:50:50;;;;;;;18.92;8.52;;;;;;;;;;6124616;23;20018;-42
2023/08/18 04:53:18;;;;;;;17.07;8.27;;;;;;;;;;6124106;23;20018;-41
2023/08/18 04:55:45;;;;;;;16.13;8.55;;;;;;;;;;6126992;23;20558;-42
2023/08/18 04:58:13;;;;;;;17.92;8.20;;;;;;;;;;6125374;23;20017;-43
2023/08/18 05:00:43;;;;;;;19.17;8.05;;;;;;;;;;6125924;23;20341;-42
2023/08/18 05:03:11;;;;;;;20.63;8.45;;;;;;;;;;6122168;23;20088;-41
2023/08/18 05:05:39;;;;;;;24.93;8.13;;;;;;;;;;6123257;23;20022;-42
2023/08/18 05:08:09;;;;;;;19.95;7.95;;;;;;;;;;6123700;23;20013;-45
2023/08/18 05:10:36;;;;;;;21.27;7.95;;;;;;;;;;6127090;23;20021;-43
2023/08/18 05:13:04;;;;;;;19.23;8.95;;;;;;;;;;6119656;23;20025;-42
2023/08/18 05:15:32;;;;;;;20.58;9.05;;;;;;;;;;6127459;23;20021;-42
2023/08/18 05:17:59;;;;;;;19.77;8.73;;;;;;;;;;6127925;23;20063;-43
2023/08/18 05:20:27;;;;;;;22.25;9.10;;;;;;;;;;6118945;23;20018;-43
2023/08/18 05:22:55;;;;;;;18.08;8.40;;;;;;;;;;6129324;23;20021;-43
2023/08/18 05:25:24;;;;;;;21.75;9.18;;;;;;;;;;6127089;23;20017;-42
2023/08/18 05:27:54;;;;;;;19.65;9.82;;;;;;;;;;6128797;23;20440;-42
2023/08/18 05:30:22;;;;;;;20.00;9.37;;;;;;;;;;6128699;23;20028;-41
2023/08/18 05:32:49;;;;;;;23.00;9.30;;;;;;;;;;6121671;23;20029;-43
2023/08/18 05:35:17;;;;;;;21.25;8.55;;;;;;;;;;6125904;23;20037;-41
2023/08/18 05:37:45;;;;;;;20.52;9.05;;;;;;;;;;6124985;23;20028;-44
2023/08/18 05:40:12;;;;;;;23.77;10.50;;;;;;;;;;6127756;23;20092;-43
2023/08/18 05:42:41;;;;;;;25.00;10.77;;;;;;;;;;6123987;23;20330;-44
2023/08/18 05:45:09;;;;;;;25.88;11.10;;;;;;;;;;6124216;23;20013;-42
2023/08/18 05:47:38;;;;;;;26.95;11.90;;;;;;;;;;6122035;23;20025;-42
2023/08/18 05:50:08;;;;;;;29.90;13.32;;;;;;;;;;6128462;23;20072;-43
2023/08/18 05:52:35;;;;;;;36.15;11.88;;;;;;;;;;6124842;23;20307;-41
2023/08/18 05:55:05;;;;;;;42.17;13.17;;;;;;;;;;6119395;23;20018;-42
2023/08/18 05:57:32;;;;;;;31.27;13.50;;;;;;;;;;6124367;23;20381;-45
2023/08/18 06:00:01;;;;;;;35.50;15.57;;;;;;;;;;6118984;23;20852;-41
2023/08/18 06:02:29;;;;;;;39.90;16.13;;;;;;;;;;6128530;23;20088;-41
2023/08/18 06:04:58;;;;;;;39.53;15.80;;;;;;;;;;6117369;23;20017;-42
2023/08/18 06:07:25;;;;;;;39.27;16.73;;;;;;;;;;6126517;23;20048;-41
2023/08/18 06:09:54;;;;;;;36.65;16.30;;;;;;;;;;6115947;23;20198;-41
2023/08/18 06:12:21;;;;;;;37.10;15.88;;;;;;;;;;6133560;23;20017;-41
2023/08/18 06:14:49;;;;;;;34.58;15.32;;;;;;;;;;6117468;23;20021;-42
2023/08/18 06:17:18;;;;;;;36.67;14.60;;;;;;;;;;6123537;23;20025;-43
2023/08/18 06:19:46;;;;;;;40.83;15.93;;;;;;;;;;6128747;23;20020;-41
2023/08/18 06:22:14;;;;;;;31.65;15.68;;;;;;;;;;6115732;23;20024;-41
2023/08/18 06:24:42;;;;;;;32.13;15.70;;;;;;;;;;6127645;23;20021;-42
2023/08/18 06:27:09;;;;;;;38.03;15.05;;;;;;;;;;6127573;23;20601;-42
2023/08/18 06:29:38;;;;;;;37.67;15.20;;;;;;;;;;6118733;23;20017;-42
2023/08/18 06:32:05;;;;;;;34.03;15.97;;;;;;;;;;6123497;23;20640;-41
2023/08/18 06:34:34;;;;;;;33.38;15.38;;;;;;;;;;6124343;23;20017;-41
2023/08/18 06:37:02;;;;;;;34.97;15.65;;;;;;;;;;6122490;23;20032;-45
2023/08/18 06:39:30;;;;;;;35.60;15.27;;;;;;;;;;6119035;23;20346;-41
2023/08/18 06:41:58;;;;;;;42.95;16.05;;;;;;;;;;6124309;23;20468;-43
2023/08/18 06:44:25;;;;;;;35.87;15.57;;;;;;;;;;6118338;23;20018;-42
2023/08/18 06:46:53;;;;;;;37.72;16.30;;;;;;;;;;6127636;23;20013;-43
2023/08/18 06:49:21;;;;;;;42.83;17.13;;;;;;;;;;6119456;23;20017;-41
2023/08/18 06:51:50;;;;;;;42.45;17.98;;;;;;;;;;6119190;23;20087;-42
2023/08/18 06:54:17;;;;;;;37.17;16.10;;;;;;;;;;6123160;23;20048;-41
2023/08/18 06:56:45;;;;;;;39.50;17.13;;;;;;;;;;6115935;23;20018;-41
2023/08/18 06:59:13;;;;;;;43.70;17.60;;;;;;;;;;6128051;23;20017;-41
2023/08/18 07:01:41;;;;;;;38.92;16.88;;;;;;;;;;6108164;23;20356;-41
2023/08/18 07:04:09;;;;;;;43.58;17.05;;;;;;;;;;6131626;23;20013;-42
2023/08/18 07:06:36;;;;;;;39.03;16.85;;;;;;;;;;6111263;23;20205;-42
2023/08/18 07:09:05;;;;;;;40.47;16.17;;;;;;;;;;6130092;23;20076;-41
2023/08/18 07:11:33;;;;;;;37.13;16.30;;;;;;;;;;6115776;23;20581;-42
2023/08/18 07:14:01;;;;;;;38.35;15.30;;;;;;;;;;6128828;23;20013;-42
2023/08/18 07:16:28;;;;;;;40.13;15.68;;;;;;;;;;6121415;23;20017;-43
2023/08/18 07:18:56;;;;;;;36.85;15.77;;;;;;;;;;6117391;23;20402;-41
2023/08/18 07:21:24;;;;;;;40.37;16.30;;;;;;;;;;6127459;23;20025;-41
2023/08/18 07:23:51;;;;;;;39.33;16.75;;;;;;;;;;6115926;23;20253;-42
2023/08/18 07:26:20;;;;;;;38.58;16.40;;;;;;;;;;6125770;23;20041;-42
2023/08/18 07:28:48;;;;;;;35.00;16.33;;;;;;;;;;6121639;23;20017;-45
2023/08/18 07:31:16;;;;;;;38.70;17.38;;;;;;;;;;6125877;23;20022;-41
2023/08/18 07:34:02;;;;;;;43.97;17.00;;;;;;;;;;6122082;23;20445;-42
2023/08/18 07:36:32;;;;;;;38.20;17.20;;;;;;;;;;6126404;23;20014;-42
2023/08/18 07:38:59;;;;;;;40.85;17.90;;;;;;;;;;6124917;23;20021;-42
2023/08/18 07:41:28;;;;;;;42.25;18.13;;;;;;;;;;6119601;23;20018;-43
2023/08/18 07:43:57;;;;;;;41.05;18.20;;;;;;;;;;6129230;23;20017;-41
2023/08/18 07:46:24;;;;;;;43.10;18.60;;;;;;;;;;6121643;23;20013;-41
2023/08/18 07:48:52;;;;;;;40.28;17.05;;;;;;;;;;6124213;23;20013;-42
2023/08/18 07:51:20;;;;;;;38.75;18.00;;;;;;;;;;6125240;23;20215;-41
2023/08/18 07:53:48;;;;;;;34.13;16.17;;;;;;;;;;6117875;23;20313;-43
2023/08/18 07:56:15;;;;;;;41.63;17.77;;;;;;;;;;6127012;23;20021;-41
2023/08/18 07:58:44;;;;;;;41.00;15.87;;;;;;;;;;6118181;23;20021;-41
2023/08/18 08:01:12;;;;;;;32.45;14.88;;;;;;;;;;6130105;23;20019;-41
2023/08/18 08:03:59;;;;;;;29.58;14.40;;;;;;;;;;6130335;23;20424;-42
2023/08/18 08:06:27;;;;;;;28.27;13.18;;;;;;;;;;6117617;23;20448;-44
2023/08/18 08:08:55;;;;;;;25.40;13.20;;;;;;;;;;6131824;23;20014;-41
2023/08/18 08:11:23;;;;;;;26.43;12.87;;;;;;;;;;6116900;23;20356;-42
2023/08/18 08:13:52;;;;;;;27.90;13.68;;;;;;;;;;6129202;23;20013;-43
2023/08/18 08:16:20;;;;;;;29.50;13.07;;;;;;;;;;6123664;23;20396;-43
2023/08/18 08:18:47;;;;;;;29.50;14.43;;;;;;;;;;6128279;23;20899;-41
2023/08/18 08:21:15;;;;;;;27.58;13.40;;;;;;;;;;6117762;23;20076;-41
2023/08/18 08:23:43;;;;;;;28.10;13.23;;;;;;;;;;6127833;23;20464;-41
2023/08/18 08:26:15;;;;;;;29.42;13.10;;;;;;;;;;6127630;23;20087;-41
2023/08/18 08:28:44;;;;;;;25.33;13.40;;;;;;;;;;6124483;23;20487;-41
2023/08/18 08:31:13;;;;;;;23.20;13.52;;;;;;;;;;6123907;23;20096;-41
2023/08/18 08:33:40;;;;;;;21.25;11.68;;;;;;;;;;6121882;23;20493;-41
2023/08/18 08:36:09;;;;;;;26.03;11.87;;;;;;;;;;6114354;23;20017;-41
2023/08/18 08:38:37;;;;;;;19.63;10.18;;;;;;;;;;6126142;23;20029;-41
2023/08/18 08:41:09;;;;;;;21.23;10.27;;;;;;;;;;6116081;23;20648;-43
2023/08/18 08:43:38;;;;;;;20.10;9.80;;;;;;;;;;6127547;23;20026;-43
2023/08/18 08:46:07;;;;;;;20.17;10.13;;;;;;;;;;6121155;23;20448;-41
2023/08/18 08:48:38;;;;;;;19.80;10.77;;;;;;;;;;6123567;23;20017;-42
2023/08/18 08:51:09;;;;;;;18.70;9.77;;;;;;;;;;6124008;23;20013;-41
2023/08/18 08:53:38;;;;;;;19.92;10.35;;;;;;;;;;6118885;23;20508;-41
2023/08/18 08:56:07;;;;;;;19.55;10.93;;;;;;;;;;6126409;23;20379;-42
2023/08/18 08:58:37;;;;;;;19.83;10.45;;;;;;;;;;6111005;23;20459;-41
2023/08/18 09:01:06;;;;;;;17.63;10.40;;;;;;;;;;6128800;23;20109;-44
2023/08/18 09:03:36;;;;;;;20.73;11.25;;;;;;;;;;6114300;23;20018;-43
2023/08/18 09:06:06;;;;;;;23.17;11.18;;;;;;;;;;6130265;23;20032;-43
2023/08/18 09:08:35;;;;;;;22.05;11.55;;;;;;;;;;6117947;23;20077;-41
2023/08/18 09:11:03;;;;;;;21.90;11.73;;;;;;;;;;6126933;23;20013;-41
2023/08/18 09:13:30;;;;;;;25.10;12.03;;;;;;;;;;6121553;23;20021;-41
2023/08/18 09:15:58;;;;;;;20.58;11.07;;;;;;;;;;6127520;23;20018;-42
2023/08/18 09:18:26;;;;;;;22.58;11.77;;;;;;;;;;6129607;23;20029;-41
2023/08/18 09:20:57;;;;;;;21.63;11.13;;;;;;;;;;6113003;23;20457;-41
2023/08/18 09:23:26;;;;;;;20.80;10.57;;;;;;;;;;6122229;23;20025;-42
2023/08/18 09:25:56;;;;;;;16.97;10.03;;;;;;;;;;6123126;23;20174;-43
2023/08/18 09:28:24;;;;;;;18.23;10.07;;;;;;;;;;6122235;23;20354;-43
2023/08/18 09:30:52;;;;;;;22.17;11.07;;;;;;;;;;6124316;23;20077;-42
2023/08/18 09:33:22;;;;;;;21.08;10.35;;;;;;;;;;6115130;23;20677;-43
2023/08/18 09:35:59;;;;;;;19.67;10.32;;;;;;;;;;6121889;23;20333;-43
2023/08/18 09:38:27;;;;;;;20.37;10.53;;;;;;;;;;6115031;23;20018;-42
2023/08/18 09:40:57;;;;;;;18.55;10.25;;;;;;;;;;6132299;23;20050;-45
2023/08/18 09:43:24;;;;;;;21.20;12.00;;;;;;;;;;6124434;23;20021;-43
2023/08/18 09:45:54;;;;;;;24.95;12.55;;;;;;;;;;6126887;23;20039;-43
2023/08/18 09:48:27;;;;;;;22.20;13.30;;;;;;;;;;6119477;23;20132;-45
2023/08/18 09:50:58;;;;;;;21.13;12.60;;;;;;;;;;6123301;23;20025;-42
2023/08/18 09:53:28;;;;;;;22.15;12.57;;;;;;;;;;6118613;23;20511;-45
2023/08/18 09:55:58;;;;;;;23.98;13.25;;;;;;;;;;6127093;23;20176;-42
2023/08/18 09:58:29;;;;;;;24.30;14.15;;;;;;;;;;6121138;23;20410;-41
2023/08/18 10:00:57;;;;;;;25.23;13.43;;;;;;;;;;6130249;23;20018;-42
2023/08/18 10:03:26;;;;;;;24.43;13.27;;;;;;;;;;6122022;23;20028;-43
2023/08/18 10:05:54;;;;;;;22.02;12.90;;;;;;;;;;6121729;23;20017;-44
2023/08/18 10:08:22;;;;;;;22.73;12.27;;;;;;;;;;6119998;23;20029;-46
2023/08/18 10:10:51;;;;;;;19.33;10.68;;;;;;;;;;6110045;23;20043;-44
2023/08/18 10:13:19;;;;;;;23.60;12.15;;;;;;;;;;6121504;23;20028;-42
2023/08/18 10:15:47;;;;;;;19.70;10.47;;;;;;;;;;6113519;23;20028;-46
2023/08/18 10:18:15;;;;;;;19.85;11.48;;;;;;;;;;6122903;23;20462;-43
2023/08/18 10:20:49;;;;;;;21.73;12.50;;;;;;;;;;6113376;23;20017;-43
2023/08/18 10:23:18;;;;;;;22.55;13.25;;;;;;;;;;6122932;23;20089;-42
2023/08/18 10:25:46;;;;;;;20.38;11.30;;;;;;;;;;6121523;23;20018;-42
2023/08/18 10:28:19;;;;;;;19.37;10.27;;;;;;;;;;6124819;23;20500;-42
2023/08/18 10:30:50;;;;;;;24.40;12.00;;;;;;;;;;6121678;23;20412;-42
2023/08/18 10:33:28;;;;;;;19.80;11.25;;;;;;;;;;6111332;23;20025;-43
2023/08/18 10:35:59;;;;;;;21.38;12.05;;;;;;;;;;6128812;23;20017;-50
2023/08/18 10:38:28;;;;;;;24.50;14.05;;;;;;;;;;6119734;23;20023;-47
2023/08/18 10:40:55;;;;;;;20.67;11.30;;;;;;;;;;6123738;23;20045;-46
2023/08/18 10:43:27;;;;;;;24.95;13.90;;;;;;;;;;6118436;23;20024;-49
2023/08/18 10:45:57;;;;;;;27.02;14.18;;;;;;;;;;6119883;23;20022;-42
2023/08/18 10:48:28;;;;;;;23.95;11.88;;;;;;;;;;6103829;23;20017;-43
2023/08/18 10:50:56;;;;;;;21.27;11.65;;;;;;;;;;6126269;23;20407;-43
2023/08/18 10:53:23;;;;;;;21.13;11.20;;;;;;;;;;6109371;23;20040;-48
2023/08/18 10:55:53;;;;;;;24.08;12.65;;;;;;;;;;6126764;23;20028;-42
2023/08/18 10:58:21;;;;;;;22.90;11.80;;;;;;;;;;6114913;23;20018;-44
2023/08/18 11:00:51;;;;;;;22.77;11.70;;;;;;;;;;6120727;23;20021;-43
2023/08/18 11:03:19;;;;;;;32.97;17.17;;;;;;;;;;6124008;23;20068;-43
2023/08/18 11:05:47;;;;;;;28.30;14.47;;;;;;;;;;6118262;23;20020;-44
2023/08/18 11:08:15;;;;;;;28.00;15.60;;;;;;;;;;6124254;23;20044;-45
2023/08/18 11:10:43;;;;;;;26.40;13.73;;;;;;;;;;6111695;23;20022;-43
2023/08/18 11:13:13;;;;;;;29.00;15.48;;;;;;;;;;6131457;23;20028;-44
2023/08/18 11:15:42;;;;;;;30.73;16.55;;;;;;;;;;6115037;23;20053;-44
2023/08/18 11:18:12;;;;;;;26.40;13.93;;;;;;;;;;6127374;23;20017;-46
2023/08/18 11:20:40;;;;;;;30.77;14.70;;;;;;;;;;6107241;23;20326;-44
2023/08/18 11:23:09;;;;;;;27.55;14.90;;;;;;;;;;6121344;23;20044;-43
2023/08/18 11:25:37;;;;;;;20.73;10.88;;;;;;;;;;6118492;23;20225;-43
2023/08/18 11:28:05;;;;;;;29.45;15.23;;;;;;;;;;6129395;23;20024;-44
2023/08/18 11:30:33;;;;;;;22.30;12.73;;;;;;;;;;6115463;23;20013;-43
2023/08/18 11:33:01;;;;;;;14.20;7.22;;;;;;;;;;6128126;23;20033;-43
2023/08/18 11:35:31;;;;;;;24.30;13.15;;;;;;;;;;6120889;23;20381;-43
2023/08/18 11:37:58;;;;;;;31.27;15.73;;;;;;;;;;6132103;23;20014;-43
2023/08/18 11:40:26;;;;;;;29.05;15.48;;;;;;;;;;6109968;23;20519;-43
2023/08/18 11:42:57;;;;;;;32.37;17.13;;;;;;;;;;6126230;23;20017;-45
2023/08/18 11:45:25;;;;;;;34.40;17.30;;;;;;;;;;6122082;23;20021;-43
2023/08/18 11:47:58;;;;;;;32.13;16.08;;;;;;;;;;6126265;23;20021;-42
2023/08/18 11:50:34;;;;;;;34.53;16.38;;;;;;;;;;6130865;23;20017;-44
2023/08/18 11:53:02;;;;;;;26.58;14.30;;;;;;;;;;6126798;23;20026;-43
2023/08/18 11:55:31;;;;;;;36.30;17.17;;;;;;;;;;6119651;23;20581;-43
2023/08/18 11:57:59;;;;;;;40.50;19.25;;;;;;;;;;6131989;23;20024;-45
2023/08/18 12:00:31;;;;;;;26.13;13.30;;;;;;;;;;6121510;23;20021;-45
2023/08/18 12:03:00;;;;;;;32.50;17.75;;;;;;;;;;6128653;23;20093;-42
2023/08/18 12:05:29;;;;;;;30.40;17.20;;;;;;;;;;6118576;23;20060;-43
2023/08/18 12:07:59;;;;;;;20.27;11.63;;;;;;;;;;6124798;23;20025;-42
2023/08/18 12:10:28;;;;;;;30.13;16.02;;;;;;;;;;6150557;23;20072;-43
2023/08/18 12:12:57;;;;;;;28.33;16.20;;;;;;;;;;6115059;23;20017;-45
2023/08/18 12:15:26;;;;;;;24.25;13.93;;;;;;;;;;6123762;23;20021;-44
2023/08/18 12:17:54;;;;;;;23.45;12.48;;;;;;;;;;6130907;23;20017;-45
2023/08/18 12:20:23;;;;;;;26.07;15.33;;;;;;;;;;6111867;23;20423;-43
2023/08/18 12:22:51;;;;;;;26.70;14.98;;;;;;;;;;6122480;23;20549;-42
2023/08/18 12:25:21;;;;;;;22.35;12.65;;;;;;;;;;6123894;23;20445;-43
2023/08/18 12:27:50;;;;;;;23.73;13.15;;;;;;;;;;6128996;23;20025;-44
2023/08/18 12:30:19;;;;;;;27.85;15.55;;;;;;;;;;6127853;23;20017;-44
2023/08/18 12:32:48;;;;;;;29.10;16.77;;;;;;;;;;6113027;23;20021;-43
2023/08/18 12:35:15;;;;;;;19.75;9.55;;;;;;;;;;6125080;23;20116;-43
2023/08/18 12:37:43;;;;;;;27.08;16.58;;;;;;;;;;6123668;23;20373;-42
2023/08/18 12:40:11;;;;;;;22.88;11.77;;;;;;;;;;6120963;23;20029;-42
2023/08/18 12:42:41;;;;;;;20.63;12.23;;;;;;;;;;6117983;23;20329;-42
2023/08/18 12:45:09;;;;;;;30.17;15.23;;;;;;;;;;6127766;23;20017;-43
2023/08/18 12:47:39;;;;;;;30.55;17.15;;;;;;;;;;6121209;23;20072;-43
2023/08/18 12:50:08;;;;;;;23.15;14.48;;;;;;;;;;6129203;23;20025;-42
2023/08/18 12:52:36;;;;;;;30.80;16.25;;;;;;;;;;6108836;23;20013;-44
2023/08/18 12:55:05;;;;;;;30.05;17.70;;;;;;;;;;6128993;23;20573;-44
2023/08/18 12:57:33;;;;;;;26.50;15.93;;;;;;;;;;6126361;23;20021;-44
2023/08/18 13:00:02;;;;;;;27.58;16.10;;;;;;;;;;6119840;23;20475;-45
2023/08/18 13:02:30;;;;;;;32.13;17.73;;;;;;;;;;6147025;23;20014;-45
2023/08/18 13:04:58;;;;;;;27.77;16.10;;;;;;;;;;6108495;23;20355;-44
2023/08/18 13:07:25;;;;;;;25.35;15.45;;;;;;;;;;6116886;23;20013;-41
2023/08/18 13:09:53;;;;;;;27.63;17.13;;;;;;;;;;6122210;23;20017;-43
2023/08/18 13:12:20;;;;;;;26.63;14.77;;;;;;;;;;6111369;23;20021;-44
2023/08/18 13:14:48;;;;;;;23.33;13.55;;;;;;;;;;6111081;23;20017;-43
2023/08/18 13:17:17;;;;;;;29.77;15.68;;;;;;;;;;6121222;23;20021;-42
2023/08/18 13:19:45;;;;;;;29.67;15.25;;;;;;;;;;6114978;23;20372;-45
2023/08/18 13:22:16;;;;;;;23.47;14.13;;;;;;;;;;6119885;23;20448;-44
2023/08/18 13:24:44;;;;;;;23.25;14.25;;;;;;;;;;6120631;23;20104;-46
2023/08/18 13:27:11;;;;;;;20.45;11.68;;;;;;;;;;6123288;23;20487;-44
2023/08/18 13:29:39;;;;;;;26.40;15.02;;;;;;;;;;6116778;23;20021;-44
2023/08/18 13:32:07;;;;;;;19.33;11.95;;;;;;;;;;6128167;23;20082;-43
2023/08/18 13:34:36;;;;;;;25.17;13.90;;;;;;;;;;6115245;23;20511;-45
2023/08/18 13:37:04;;;;;;;23.25;13.30;;;;;;;;;;6130470;23;20021;-47
2023/08/18 13:39:32;;;;;;;26.63;14.85;;;;;;;;;;6120430;23;20511;-44
2023/08/18 13:42:00;;;;;;;25.42;14.90;;;;;;;;;;6132944;23;20017;-44
2023/08/18 13:44:28;;;;;;;23.70;13.18;;;;;;;;;;6118167;23;20018;-44
2023/08/18 13:46:57;;;;;;;23.90;15.10;;;;;;;;;;6131482;23;20013;-44
2023/08/18 13:49:27;;;;;;;22.83;12.57;;;;;;;;;;6124239;23;20795;-47
2023/08/18 13:51:56;;;;;;;22.27;14.27;;;;;;;;;;6119296;23;20231;-42
2023/08/18 13:54:23;;;;;;;21.02;12.00;;;;;;;;;;6124559;23;20092;-47
2023/08/18 13:56:51;;;;;;;24.33;14.43;;;;;;;;;;6112895;23;20036;-45
2023/08/18 13:59:19;;;;;;;20.70;11.27;;;;;;;;;;6130484;23;20761;-44
2023/08/18 14:01:46;;;;;;;20.92;13.00;;;;;;;;;;6113218;23;20017;-44
2023/08/18 14:04:14;;;;;;;20.92;12.35;;;;;;;;;;6117592;23;20068;-44
2023/08/18 14:06:42;;;;;;;15.43;9.45;;;;;;;;;;6113237;23;20398;-44
2023/08/18 14:09:14;;;;;;;23.15;13.52;;;;;;;;;;6100792;23;20025;-44
2023/08/18 14:11:44;;;;;;;20.53;12.30;;;;;;;;;;6121998;23;20014;-44
2023/08/18 14:14:12;;;;;;;20.83;12.73;;;;;;;;;;6134096;23;20040;-45
2023/08/18 14:16:40;;;;;;;20.58;12.23;;;;;;;;;;6126578;23;20433;-44
2023/08/18 14:19:08;;;;;;;15.15;8.85;;;;;;;;;;6129019;23;20071;-45
2023/08/18 14:21:38;;;;;;;18.10;10.95;;;;;;;;;;6125777;23;20048;-45
2023/08/18 14:24:06;;;;;;;18.80;11.27;;;;;;;;;;6122795;23;20038;-43
2023/08/18 14:26:35;;;;;;;20.55;12.40;;;;;;;;;;6122637;23;20028;-45
2023/08/18 14:29:03;;;;;;;20.13;11.98;;;;;;;;;;6119254;23;20425;-43